Time;durP1;ratioP1;P1;durP2;ratioP2;P2;SDS_P1;SDS_P2;PMS_P1;PMS_P2;Temp;Humidity;BMP_temperature;BMP_pressure;BME280_temperature;BME280_humidity;BME280_pressure;Samples;Min_cycle;Max_cycle;Signal;HPM_P1;HPM_P2
2023/11/02 00:02:23;;;;;;;0.70;0.30;;;10.00;1.00;;;;;;5132844;27;20422;-59
2023/11/02 00:04:51;;;;;;;0.40;0.30;;;10.00;1.00;;;;;;5132627;27;20524;-58
2023/11/02 00:07:19;;;;;;;1.08;0.30;;;10.00;1.00;;;;;;5131362;27;20475;-58
2023/11/02 00:09:46;;;;;;;0.90;0.40;;;10.00;1.00;;;;;;5132818;27;20409;-58
2023/11/02 00:12:19;;;;;;;0.73;0.30;;;10.00;1.00;;;;;;5132296;27;20774;-58
2023/11/02 00:14:51;;;;;;;1.00;0.30;;;10.00;1.00;;;;;;5134663;27;20419;-57
2023/11/02 00:17:48;;;;;;;0.50;0.30;;;10.00;1.00;;;;;;5136417;27;20475;-57
2023/11/02 00:20:30;;;;;;;1.40;0.40;;;10.00;1.00;;;;;;5123822;27;20414;-59
2023/11/02 00:22:57;;;;;;;0.70;0.30;;;9.90;1.00;;;;;;5136762;27;20701;-59
2023/11/02 00:25:51;;;;;;;0.60;0.30;;;10.00;1.00;;;;;;5136911;27;20698;-58
2023/11/02 00:28:18;;;;;;;0.50;0.30;;;10.00;1.00;;;;;;5137319;27;20422;-61
2023/11/02 00:30:48;;;;;;;0.70;0.30;;;9.90;1.00;;;;;;5137460;27;20413;-59
2023/11/02 00:33:16;;;;;;;0.50;0.20;;;9.90;1.00;;;;;;5136857;27;20905;-60
2023/11/02 00:35:45;;;;;;;0.40;0.20;;;9.80;1.00;;;;;;5137115;27;20699;-57
2023/11/02 00:38:17;;;;;;;0.40;0.20;;;9.80;1.00;;;;;;5137049;27;20505;-60
2023/11/02 00:40:45;;;;;;;0.60;0.20;;;9.80;1.00;;;;;;5136822;27;20869;-59
2023/11/02 00:43:12;;;;;;;0.40;0.20;;;9.80;1.00;;;;;;5136223;27;20726;-60
2023/11/02 00:45:42;;;;;;;0.60;0.30;;;9.80;1.00;;;;;;5135798;27;20428;-60
2023/11/02 00:48:18;;;;;;;0.50;0.22;;;9.80;1.00;;;;;;5135249;27;20880;-58
2023/11/02 00:51:24;;;;;;;0.55;0.22;;;9.80;1.00;;;;;;5133921;27;20826;-59
2023/11/02 00:53:56;;;;;;;1.40;0.30;;;9.80;1.00;;;;;;5135697;27;20722;-57
2023/11/02 00:56:24;;;;;;;0.80;0.30;;;9.90;1.00;;;;;;5135244;27;20414;-58
2023/11/02 00:58:53;;;;;;;0.70;0.20;;;9.80;1.00;;;;;;5135544;27;20724;-58
2023/11/02 01:01:22;;;;;;;1.70;0.20;;;9.80;1.00;;;;;;5135757;27;20421;-58
2023/11/02 01:03:56;;;;;;;1.60;0.30;;;9.80;1.00;;;;;;5135577;27;20429;-58
2023/11/02 01:06:27;;;;;;;0.50;0.20;;;9.80;1.00;;;;;;5135232;27;20438;-58
2023/11/02 01:09:00;;;;;;;0.60;0.20;;;9.80;1.00;;;;;;5135096;27;20418;-58
2023/11/02 01:11:33;;;;;;;0.50;0.20;;;9.90;1.00;;;;;;5135354;27;20406;-58
2023/11/02 01:14:01;;;;;;;0.40;0.20;;;9.90;1.00;;;;;;5134969;27;20777;-59
2023/11/02 01:16:29;;;;;;;0.40;0.20;;;9.80;1.00;;;;;;5135708;27;20461;-61
2023/11/02 01:18:59;;;;;;;0.50;0.28;;;9.90;1.00;;;;;;5135876;27;20419;-59
2023/11/02 01:21:29;;;;;;;0.57;0.20;;;9.90;99.90;;;;;;5135490;27;20456;-59
2023/11/02 01:24:03;;;;;;;0.80;0.30;;;9.80;99.90;;;;;;5135687;27;20414;-59
2023/11/02 01:26:58;;;;;;;0.40;0.20;;;9.80;1.00;;;;;;5135323;27;20422;-60
2023/11/02 01:29:28;;;;;;;1.00;0.20;;;9.70;1.00;;;;;;5134398;27;20479;-60
2023/11/02 01:31:55;;;;;;;2.10;0.20;;;9.70;1.00;;;;;;5135660;27;20411;-60
2023/11/02 01:34:24;;;;;;;0.40;0.20;;;9.70;1.00;;;;;;5135351;27;20418;-59
2023/11/02 01:36:56;;;;;;;0.50;0.20;;;9.70;1.00;;;;;;5135288;27;20869;-60
2023/11/02 01:39:57;;;;;;;0.50;0.30;;;9.70;1.00;;;;;;5135281;27;20784;-60
2023/11/02 01:42:30;;;;;;;1.40;0.20;;;9.70;1.00;;;;;;5135709;27;20429;-59
2023/11/02 01:45:06;;;;;;;0.60;0.30;;;9.70;1.00;;;;;;5135024;27;20419;-60
2023/11/02 01:48:05;;;;;;;0.30;0.20;;;9.70;1.00;;;;;;5135187;27;20729;-59
2023/11/02 01:50:36;;;;;;;1.40;0.30;;;9.80;1.00;;;;;;5134025;27;20853;-59
2023/11/02 01:53:36;;;;;;;1.20;0.20;;;9.80;99.90;;;;;;5134910;27;20453;-59
2023/11/02 01:56:09;;;;;;;0.50;0.20;;;9.90;99.90;;;;;;5132290;27;20731;-59
2023/11/02 01:58:48;;;;;;;0.40;0.25;;;9.80;99.90;;;;;;5135850;27;20741;-60
2023/11/02 02:01:23;;;;;;;0.53;0.20;;;9.90;99.90;;;;;;5136324;27;20422;-60
2023/11/02 02:04:02;;;;;;;0.60;0.30;;;9.90;99.90;;;;;;5136099;27;20453;-59
2023/11/02 02:06:42;;;;;;;0.40;0.30;;;9.80;99.90;;;;;;5135246;27;20458;-59
2023/11/02 02:09:28;;;;;;;0.40;0.30;;;9.80;1.00;;;;;;5135555;27;20419;-59
2023/11/02 02:12:00;;;;;;;0.60;0.30;;;9.80;1.00;;;;;;5135274;27;20410;-60
2023/11/02 02:14:39;;;;;;;0.57;0.30;;;9.70;1.00;;;;;;5134966;27;20418;-60
2023/11/02 02:17:19;;;;;;;0.90;0.30;;;9.80;1.00;;;;;;5134772;27;20415;-57
2023/11/02 02:20:02;;;;;;;0.45;0.30;;;9.70;1.00;;;;;;5134822;27;20850;-59
2023/11/02 02:22:37;;;;;;;0.50;0.20;;;9.80;1.00;;;;;;5135548;27;20519;-59
2023/11/02 02:25:13;;;;;;;0.50;0.30;;;9.80;1.00;;;;;;5135110;27;20429;-59
2023/11/02 02:28:26;;;;;;;0.60;0.20;;;9.80;1.00;;;;;;5134615;27;20430;-59
2023/11/02 02:31:37;;;;;;;0.50;0.30;;;9.80;1.00;;;;;;5135586;27;20433;-59
2023/11/02 02:34:34;;;;;;;1.20;0.25;;;9.90;1.00;;;;;;5105286;27;20415;-59
2023/11/02 02:37:08;;;;;;;0.47;0.30;;;9.80;1.00;;;;;;5134405;27;20426;-60
2023/11/02 02:39:39;;;;;;;1.00;0.30;;;9.80;1.00;;;;;;5132624;27;20414;-60
2023/11/02 02:42:08;;;;;;;0.40;0.20;;;9.80;1.00;;;;;;5132644;27;20790;-60
2023/11/02 02:44:37;;;;;;;1.00;0.30;;;9.80;1.00;;;;;;5133303;27;20875;-59
2023/11/02 02:47:06;;;;;;;0.97;0.37;;;9.70;1.00;;;;;;5133012;27;20858;-59
2023/11/02 02:49:39;;;;;;;0.50;0.30;;;9.60;1.00;;;;;;5133080;27;20429;-59
2023/11/02 02:52:09;;;;;;;1.03;0.30;;;9.70;1.00;;;;;;5133237;27;20690;-60
2023/11/02 02:54:39;;;;;;;0.50;0.30;;;9.70;1.00;;;;;;5133987;27;20458;-59
2023/11/02 02:57:09;;;;;;;0.90;0.30;;;9.70;1.00;;;;;;5133707;27;20739;-59
2023/11/02 02:59:43;;;;;;;0.60;0.30;;;9.60;1.00;;;;;;5134171;27;20415;-59
2023/11/02 03:02:14;;;;;;;0.90;0.30;;;9.70;1.00;;;;;;5134339;27;20445;-60
2023/11/02 03:04:44;;;;;;;0.60;0.40;;;9.60;1.00;;;;;;5133748;27;20441;-59
2023/11/02 03:07:16;;;;;;;0.68;0.40;;;9.60;1.00;;;;;;5133609;27;20433;-59
2023/11/02 03:09:49;;;;;;;1.10;0.40;;;9.60;1.00;;;;;;5133986;27;20426;-60
2023/11/02 03:12:25;;;;;;;0.50;0.30;;;9.70;1.00;;;;;;5134021;27;20426;-60
2023/11/02 03:14:54;;;;;;;0.50;0.30;;;9.70;1.00;;;;;;5133644;27;20468;-60
2023/11/02 03:17:29;;;;;;;0.70;0.40;;;9.70;1.00;;;;;;5133431;27;20399;-59
2023/11/02 03:19:58;;;;;;;0.60;0.30;;;9.70;1.00;;;;;;5133916;27;20430;-60
2023/11/02 03:22:27;;;;;;;0.60;0.30;;;9.80;1.00;;;;;;5134050;27;20422;-58
2023/11/02 03:25:05;;;;;;;0.80;0.30;;;9.90;1.00;;;;;;5133738;27;20422;-59
2023/11/02 03:27:44;;;;;;;0.70;0.30;;;10.00;1.00;;;;;;5134268;27;20438;-58
2023/11/02 03:30:18;;;;;;;0.50;0.25;;;10.00;1.00;;;;;;5133657;27;20919;-58
2023/11/02 03:32:53;;;;;;;0.90;0.30;;;10.00;1.00;;;;;;5133352;27;20423;-58
2023/11/02 03:35:28;;;;;;;0.50;0.30;;;10.20;1.00;;;;;;5133540;27;20407;-59
2023/11/02 03:38:06;;;;;;;0.57;0.20;;;10.20;1.00;;;;;;5133883;27;20842;-58
2023/11/02 03:40:46;;;;;;;0.60;0.30;;;10.20;1.00;;;;;;5133445;27;20457;-59
2023/11/02 03:43:19;;;;;;;0.60;0.30;;;10.20;1.00;;;;;;5133039;27;20425;-58
2023/11/02 03:46:09;;;;;;;0.60;0.30;;;10.20;1.00;;;;;;5133401;27;20419;-59
2023/11/02 03:48:42;;;;;;;0.80;0.30;;;10.00;1.00;;;;;;5129668;27;20425;-59
2023/11/02 03:51:28;;;;;;;0.50;0.30;;;10.00;1.00;;;;;;5133378;27;20437;-59
2023/11/02 03:54:20;;;;;;;0.40;0.30;;;10.00;1.00;;;;;;5132065;27;20472;-59
2023/11/02 03:57:02;;;;;;;0.82;0.40;;;9.90;1.00;;;;;;5133315;27;20698;-59
2023/11/02 03:59:44;;;;;;;0.60;0.30;;;9.90;1.00;;;;;;5132901;27;20458;-59
2023/11/02 04:02:20;;;;;;;0.60;0.30;;;9.90;11.10;;;;;;5133027;27;20425;-59
2023/11/02 04:04:49;;;;;;;0.50;0.30;;;10.00;6.20;;;;;;5132926;27;20475;-59
2023/11/02 04:07:26;;;;;;;0.60;0.30;;;10.00;18.20;;;;;;5132975;27;20429;-59
2023/11/02 04:09:59;;;;;;;1.40;0.30;;;10.00;29.50;;;;;;5132700;27;20426;-59
2023/11/02 04:12:33;;;;;;;0.60;0.30;;;10.00;33.20;;;;;;5132803;27;20425;-59
2023/11/02 04:15:01;;;;;;;0.80;0.28;;;10.10;24.00;;;;;;5133119;27;20453;-59
2023/11/02 04:17:27;;;;;;;0.55;0.30;;;10.00;13.80;;;;;;5131668;27;20426;-59
2023/11/02 04:19:55;;;;;;;0.80;0.30;;;10.00;28.90;;;;;;5131755;27;20426;-59
2023/11/02 04:22:23;;;;;;;0.60;0.30;;;9.90;45.50;;;;;;5132305;28;20418;-59
2023/11/02 04:24:51;;;;;;;0.50;0.30;;;9.90;62.80;;;;;;5131515;27;20414;-59
2023/11/02 04:27:18;;;;;;;0.60;0.30;;;9.80;99.80;;;;;;5131931;27;20434;-58
2023/11/02 04:29:45;;;;;;;0.60;0.30;;;9.90;56.30;;;;;;5131527;27;20410;-58
2023/11/02 04:32:12;;;;;;;0.40;0.20;;;9.90;30.10;;;;;;5131057;27;20449;-58
2023/11/02 04:34:40;;;;;;;0.50;0.20;;;10.00;17.90;;;;;;5132029;27;20850;-60
2023/11/02 04:37:14;;;;;;;0.50;0.30;;;10.00;17.50;;;;;;5132537;27;20800;-60
2023/11/02 04:39:43;;;;;;;0.60;0.30;;;10.00;1.00;;;;;;5131938;27;20422;-60
2023/11/02 04:42:10;;;;;;;0.50;0.30;;;10.10;1.00;;;;;;5131213;27;20422;-58
2023/11/02 04:44:37;;;;;;;1.00;0.20;;;10.20;1.00;;;;;;5130882;27;20830;-58
2023/11/02 04:47:04;;;;;;;0.50;0.30;;;10.20;1.00;;;;;;5131179;27;20427;-58
2023/11/02 04:49:34;;;;;;;0.60;0.30;;;10.20;1.00;;;;;;5131573;27;20803;-57
2023/11/02 04:52:02;;;;;;;0.60;0.20;;;10.30;1.00;;;;;;5131968;27;20783;-58
2023/11/02 04:54:30;;;;;;;0.40;0.20;;;10.30;1.00;;;;;;5131197;27;20426;-58
2023/11/02 04:56:59;;;;;;;0.50;0.30;;;10.30;1.00;;;;;;5131503;27;20832;-59
2023/11/02 04:59:26;;;;;;;1.10;0.30;;;10.30;1.00;;;;;;5132237;27;20421;-58
2023/11/02 05:01:55;;;;;;;0.45;0.30;;;10.30;1.00;;;;;;5134027;27;20419;-58
2023/11/02 05:04:22;;;;;;;0.40;0.20;;;10.20;1.00;;;;;;5134438;27;20422;-58
2023/11/02 05:06:49;;;;;;;0.80;0.20;;;10.20;1.00;;;;;;5134733;27;20407;-58
2023/11/02 05:09:17;;;;;;;0.40;0.20;;;10.20;1.00;;;;;;5133629;27;20449;-58
2023/11/02 05:11:46;;;;;;;0.70;0.20;;;10.20;1.00;;;;;;5132222;27;20430;-58
2023/11/02 05:14:14;;;;;;;1.70;0.22;;;10.20;1.00;;;;;;5133148;27;20414;-58
2023/11/02 05:16:41;;;;;;;0.50;0.20;;;10.20;1.00;;;;;;5132797;27;20418;-58
2023/11/02 05:19:10;;;;;;;0.80;0.30;;;10.20;1.00;;;;;;5133196;27;20418;-59
2023/11/02 05:21:37;;;;;;;0.60;0.30;;;10.20;1.00;;;;;;5133660;27;20418;-59
2023/11/02 05:24:05;;;;;;;0.50;0.20;;;10.20;1.00;;;;;;5132947;27;20425;-59
2023/11/02 05:26:32;;;;;;;0.98;0.30;;;10.20;1.00;;;;;;5133671;27;20640;-58
2023/11/02 05:28:59;;;;;;;0.40;0.20;;;10.10;1.00;;;;;;5133843;27;20520;-58
2023/11/02 05:31:28;;;;;;;0.47;0.20;;;10.10;1.00;;;;;;5134190;27;20498;-59
2023/11/02 05:33:55;;;;;;;1.30;0.30;;;10.00;1.00;;;;;;5134175;27;20829;-59
2023/11/02 05:36:25;;;;;;;0.50;0.30;;;10.10;1.00;;;;;;5135172;27;20461;-59
2023/11/02 05:38:52;;;;;;;0.80;0.20;;;10.10;1.00;;;;;;5135939;27;20464;-60
2023/11/02 05:41:19;;;;;;;0.50;0.20;;;10.20;1.00;;;;;;5135420;27;20722;-59
2023/11/02 05:43:46;;;;;;;0.90;0.20;;;10.30;1.00;;;;;;5134784;27;20818;-59
2023/11/02 05:46:14;;;;;;;0.40;0.20;;;10.30;1.00;;;;;;5134795;27;20422;-60
2023/11/02 05:48:42;;;;;;;0.50;0.20;;;10.40;1.00;;;;;;5134533;27;20453;-59
2023/11/02 05:51:09;;;;;;;0.80;0.20;;;10.40;1.00;;;;;;5134764;27;20425;-59
2023/11/02 05:53:36;;;;;;;0.40;0.20;;;10.40;1.00;;;;;;5133934;27;20433;-59
2023/11/02 05:56:03;;;;;;;0.40;0.20;;;10.50;1.00;;;;;;5134480;27;20832;-59
2023/11/02 05:58:30;;;;;;;0.40;0.22;;;10.50;1.00;;;;;;5134063;27;20430;-60
2023/11/02 06:00:57;;;;;;;0.57;0.30;;;10.60;1.00;;;;;;5134271;27;20429;-59
2023/11/02 06:03:26;;;;;;;0.60;0.20;;;10.60;1.00;;;;;;5133739;27;20453;-60
2023/11/02 06:05:54;;;;;;;0.40;0.20;;;10.70;1.00;;;;;;5132830;27;20421;-59
2023/11/02 06:08:22;;;;;;;1.40;0.20;;;10.70;1.00;;;;;;5133646;27;20422;-59
2023/11/02 06:10:49;;;;;;;0.50;0.30;;;10.70;1.00;;;;;;5133861;27;20511;-60
2023/11/02 06:13:16;;;;;;;0.40;0.20;;;10.70;1.00;;;;;;5133837;27;20433;-59
2023/11/02 06:15:43;;;;;;;0.40;0.20;;;10.70;1.00;;;;;;5131532;27;20429;-59
2023/11/02 06:18:10;;;;;;;1.50;0.30;;;10.70;1.00;;;;;;5133214;27;20411;-59
2023/11/02 06:20:37;;;;;;;0.40;0.20;;;10.60;1.00;;;;;;5132001;27;20411;-58
2023/11/02 06:23:06;;;;;;;0.57;0.30;;;10.50;1.00;;;;;;5131725;27;20675;-58
2023/11/02 06:25:33;;;;;;;1.00;0.20;;;10.50;34.10;;;;;;5131464;27;20429;-58
2023/11/02 06:28:00;;;;;;;0.50;0.30;;;10.30;47.50;;;;;;5131782;27;20926;-59
2023/11/02 06:30:30;;;;;;;1.50;0.20;;;10.30;78.00;;;;;;5132574;27;20418;-59
2023/11/02 06:33:01;;;;;;;1.40;0.30;;;10.30;93.10;;;;;;5133373;27;20845;-59
2023/11/02 06:35:28;;;;;;;0.90;0.30;;;10.20;99.90;;;;;;5133436;27;21004;-59
2023/11/02 06:37:57;;;;;;;1.40;0.30;;;10.20;99.90;;;;;;5133488;27;20805;-59
2023/11/02 06:40:26;;;;;;;1.20;0.20;;;10.10;99.90;;;;;;5131578;27;20406;-58
2023/11/02 06:42:56;;;;;;;0.60;0.30;;;10.20;99.90;;;;;;5131839;27;20733;-58
2023/11/02 06:45:26;;;;;;;0.50;0.30;;;10.00;99.90;;;;;;5130881;27;20426;-60
2023/11/02 06:47:53;;;;;;;1.30;0.30;;;10.00;99.90;;;;;;5129923;27;21026;-61
2023/11/02 06:50:21;;;;;;;1.40;0.40;;;10.00;99.90;;;;;;5131754;27;20417;-59
2023/11/02 06:52:48;;;;;;;1.50;0.30;;;10.00;99.90;;;;;;5130841;27;20414;-59
2023/11/02 06:55:15;;;;;;;0.65;0.30;;;9.90;99.90;;;;;;5131434;27;20426;-58
2023/11/02 06:57:43;;;;;;;0.60;0.40;;;9.90;99.90;;;;;;5130787;27;20414;-59
2023/11/02 07:00:13;;;;;;;0.50;0.30;;;9.90;99.90;;;;;;5127911;27;20836;-59
2023/11/02 07:02:40;;;;;;;0.70;0.30;;;9.90;99.90;;;;;;5129738;27;20806;-59
2023/11/02 07:05:10;;;;;;;0.67;0.30;;;9.90;99.90;;;;;;5131714;27;20699;-59
2023/11/02 07:07:40;;;;;;;0.85;0.30;;;10.00;99.90;;;;;;5130591;27;20779;-60
2023/11/02 07:10:09;;;;;;;0.50;0.30;;;9.90;99.90;;;;;;5131393;27;21114;-60
2023/11/02 07:12:36;;;;;;;1.10;0.30;;;9.90;99.90;;;;;;5130695;27;20426;-60
2023/11/02 07:15:06;;;;;;;0.85;0.40;;;9.90;99.90;;;;;;5129997;27;20415;-60
2023/11/02 07:17:34;;;;;;;0.60;0.30;;;9.80;99.90;;;;;;5122173;27;20446;-60
2023/11/02 07:20:01;;;;;;;0.70;0.30;;;9.70;99.90;;;;;;5128418;27;20532;-60
2023/11/02 07:22:28;;;;;;;0.60;0.30;;;9.80;99.90;;;;;;5130382;27;20861;-60
2023/11/02 07:24:55;;;;;;;0.80;0.40;;;9.80;99.90;;;;;;5133230;27;20428;-61
2023/11/02 07:27:23;;;;;;;0.60;0.30;;;9.90;99.90;;;;;;5130560;27;20801;-60
2023/11/02 07:29:50;;;;;;;0.70;0.32;;;9.90;99.90;;;;;;5130656;27;20419;-61
2023/11/02 07:32:20;;;;;;;0.80;0.30;;;9.80;99.90;;;;;;5130876;27;20417;-65
2023/11/02 07:34:47;;;;;;;0.77;0.40;;;9.80;99.90;;;;;;5130107;27;20422;-63
2023/11/02 07:37:14;;;;;;;0.80;0.30;;;9.70;99.90;;;;;;5142129;27;20986;-63
2023/11/02 07:39:43;;;;;;;1.80;0.30;;;9.70;99.90;;;;;;5151026;27;20421;-63
2023/11/02 07:42:10;;;;;;;1.20;0.30;;;9.70;99.90;;;;;;5151064;27;20503;-63
2023/11/02 07:44:37;;;;;;;1.70;0.40;;;9.80;99.90;;;;;;5138698;27;20413;-63
2023/11/02 07:47:04;;;;;;;0.70;0.30;;;9.70;99.90;;;;;;5128706;27;20414;-63
2023/11/02 07:49:33;;;;;;;1.20;0.40;;;9.70;99.90;;;;;;5126422;27;20933;-64
2023/11/02 07:52:00;;;;;;;0.85;0.30;;;9.80;99.90;;;;;;5128314;27;20726;-63
2023/11/02 07:54:27;;;;;;;0.80;0.40;;;9.70;99.90;;;;;;5127362;27;20465;-64
2023/11/02 07:56:54;;;;;;;1.00;0.40;;;9.80;99.90;;;;;;5134103;27;20770;-64
2023/11/02 07:59:22;;;;;;;0.80;0.40;;;9.90;99.90;;;;;;5143386;27;20407;-63
2023/11/02 08:01:49;;;;;;;0.88;0.40;;;9.90;99.90;;;;;;5129964;27;20804;-64
2023/11/02 08:04:16;;;;;;;1.20;0.30;;;9.80;99.90;;;;;;5129114;27;20820;-65
2023/11/02 08:06:45;;;;;;;1.13;0.30;;;9.80;99.90;;;;;;5129582;27;20418;-65
2023/11/02 08:09:12;;;;;;;1.20;0.30;;;9.90;99.90;;;;;;5126411;27;20525;-64
2023/11/02 08:11:39;;;;;;;0.68;0.30;;;10.00;99.90;;;;;;5130179;27;20418;-64
2023/11/02 08:14:07;;;;;;;0.57;0.30;;;9.90;99.90;;;;;;5133153;27;20406;-64
2023/11/02 08:16:35;;;;;;;1.00;0.40;;;9.90;99.90;;;;;;5132061;27;20523;-64
2023/11/02 08:19:02;;;;;;;0.70;0.30;;;9.90;99.90;;;;;;5133541;27;20414;-65
2023/11/02 08:21:30;;;;;;;0.50;0.30;;;9.80;99.90;;;;;;5131825;27;20608;-65
2023/11/02 08:23:58;;;;;;;2.30;0.30;;;9.80;99.90;;;;;;5151071;27;20417;-64
2023/11/02 08:26:25;;;;;;;1.40;0.30;;;9.80;99.90;;;;;;5151561;27;20866;-63
2023/11/02 08:28:53;;;;;;;0.70;0.40;;;9.70;99.90;;;;;;5150340;27;20860;-63
2023/11/02 08:31:24;;;;;;;0.70;0.40;;;9.80;99.90;;;;;;5149766;27;20844;-63
2023/11/02 08:33:51;;;;;;;0.70;0.40;;;9.80;99.90;;;;;;5148601;27;20497;-63
2023/11/02 08:36:18;;;;;;;0.80;0.30;;;9.80;99.90;;;;;;5131518;27;20453;-63
2023/11/02 08:38:46;;;;;;;0.50;0.30;;;9.90;99.90;;;;;;5136581;27;20479;-62
2023/11/02 08:41:23;;;;;;;1.30;0.40;;;9.90;99.90;;;;;;5136196;27;20782;-63
2023/11/02 08:43:50;;;;;;;0.60;0.30;;;9.90;99.90;;;;;;5139002;27;20460;-62
2023/11/02 08:46:19;;;;;;;0.57;0.30;;;9.90;99.90;;;;;;5155834;27;20436;-62
2023/11/02 08:48:46;;;;;;;0.90;0.30;;;9.90;99.90;;;;;;5156923;27;20865;-63
2023/11/02 08:51:15;;;;;;;0.90;0.40;;;9.90;99.90;;;;;;5131862;27;20426;-64
2023/11/02 08:53:42;;;;;;;0.80;0.40;;;9.80;99.90;;;;;;5132191;27;20403;-63
2023/11/02 08:56:10;;;;;;;0.60;0.30;;;9.80;99.90;;;;;;5135849;27;20412;-64
2023/11/02 08:58:42;;;;;;;0.60;0.40;;;9.80;99.90;;;;;;5132190;27;20475;-63
2023/11/02 09:01:11;;;;;;;1.38;0.30;;;9.80;99.90;;;;;;5134115;27;20857;-64
2023/11/02 09:03:39;;;;;;;0.52;0.28;;;9.80;99.90;;;;;;5135106;27;20508;-64
2023/11/02 09:06:07;;;;;;;0.60;0.40;;;9.80;99.90;;;;;;5136949;27;20431;-65
2023/11/02 09:08:35;;;;;;;1.00;0.50;;;9.80;99.90;;;;;;5132575;27;20423;-64
2023/11/02 09:11:02;;;;;;;0.50;0.30;;;9.80;99.90;;;;;;5133803;27;20487;-64
2023/11/02 09:13:30;;;;;;;1.50;0.40;;;9.80;99.90;;;;;;5133401;27;20853;-64
2023/11/02 09:15:58;;;;;;;1.38;0.40;;;10.00;99.90;;;;;;5134714;27;20418;-65
2023/11/02 09:18:26;;;;;;;0.73;0.30;;;10.10;99.90;;;;;;5134650;27;20848;-64
2023/11/02 09:20:53;;;;;;;1.80;0.40;;;10.20;99.90;;;;;;5133814;27;20417;-67
2023/11/02 09:23:20;;;;;;;1.40;0.40;;;10.20;99.90;;;;;;5132852;27;21024;-64
2023/11/02 09:25:48;;;;;;;0.80;0.40;;;10.10;99.90;;;;;;5134037;27;20727;-64
2023/11/02 09:28:16;;;;;;;1.40;0.40;;;10.20;99.90;;;;;;5133118;27;20505;-63
2023/11/02 09:30:44;;;;;;;1.00;0.40;;;10.20;99.90;;;;;;5133215;27;20429;-63
2023/11/02 09:33:12;;;;;;;0.80;0.45;;;10.20;99.90;;;;;;5133994;27;20522;-63
2023/11/02 09:35:40;;;;;;;0.88;0.40;;;10.20;99.90;;;;;;5133314;27;20425;-63
2023/11/02 09:38:07;;;;;;;0.90;0.47;;;10.20;99.90;;;;;;5132691;27;20407;-63
2023/11/02 09:40:35;;;;;;;0.80;0.50;;;10.20;99.90;;;;;;5132866;27;20760;-63
2023/11/02 09:43:04;;;;;;;1.60;0.50;;;10.20;99.90;;;;;;5130088;27;20508;-63
2023/11/02 09:45:32;;;;;;;0.75;0.40;;;10.30;99.90;;;;;;5132104;27;20426;-62
2023/11/02 09:48:00;;;;;;;0.70;0.40;;;10.20;99.90;;;;;;5113116;27;20841;-62
2023/11/02 09:50:29;;;;;;;1.10;0.50;;;10.20;99.90;;;;;;5130440;27;20507;-63
2023/11/02 09:52:57;;;;;;;1.20;0.40;;;10.30;99.90;;;;;;5127913;27;20422;-62
2023/11/02 09:55:25;;;;;;;0.73;0.40;;;10.40;99.90;;;;;;5130069;27;20874;-63
2023/11/02 09:57:52;;;;;;;1.20;0.40;;;10.40;99.90;;;;;;5126319;27;20432;-63
2023/11/02 10:00:20;;;;;;;1.00;0.40;;;10.40;99.90;;;;;;5126381;27;20423;-62
2023/11/02 10:02:48;;;;;;;1.60;0.30;;;10.40;99.90;;;;;;5127943;27;20410;-63
2023/11/02 10:05:16;;;;;;;0.88;0.40;;;10.50;99.90;;;;;;5125327;27;20411;-63
2023/11/02 10:07:45;;;;;;;0.88;0.40;;;10.60;99.90;;;;;;5129738;27;20465;-63
2023/11/02 10:10:15;;;;;;;0.90;0.30;;;10.70;99.90;;;;;;5130582;27;20458;-63
2023/11/02 10:12:42;;;;;;;0.53;0.30;;;10.70;99.90;;;;;;5130561;27;20418;-63
2023/11/02 10:15:13;;;;;;;0.70;0.35;;;10.80;99.90;;;;;;5130019;27;20906;-62
2023/11/02 10:17:41;;;;;;;0.50;0.20;;;10.90;99.90;;;;;;5130716;27;20998;-63
2023/11/02 10:20:10;;;;;;;0.50;0.20;;;11.10;99.90;;;;;;5131329;27;20868;-63
2023/11/02 10:22:37;;;;;;;0.40;0.20;;;11.20;99.90;;;;;;5127812;27;20938;-64
2023/11/02 10:25:06;;;;;;;0.50;0.30;;;11.30;99.90;;;;;;5128949;27;20521;-63
2023/11/02 10:27:38;;;;;;;0.40;0.20;;;11.30;99.90;;;;;;5131218;27;20434;-64
2023/11/02 10:30:06;;;;;;;0.60;0.30;;;11.40;99.90;;;;;;5112943;27;20435;-63
2023/11/02 10:32:34;;;;;;;0.80;0.20;;;11.50;99.90;;;;;;5113237;28;20443;-64
2023/11/02 10:35:01;;;;;;;0.40;0.20;;;11.50;99.90;;;;;;5112899;28;20424;-64
2023/11/02 10:37:32;;;;;;;0.60;0.30;;;11.50;99.90;;;;;;5111907;28;20442;-63
2023/11/02 10:40:00;;;;;;;0.50;0.20;;;11.50;99.90;;;;;;5112156;28;20901;-64
2023/11/02 10:42:29;;;;;;;0.40;0.20;;;11.50;99.90;;;;;;5112061;28;20743;-63
2023/11/02 10:44:57;;;;;;;0.57;0.20;;;11.50;99.90;;;;;;5111782;28;20412;-64
2023/11/02 10:47:30;;;;;;;0.50;0.20;;;11.60;99.90;;;;;;5113289;27;20722;-64
2023/11/02 10:49:58;;;;;;;0.90;0.20;;;11.70;99.90;;;;;;5132741;27;20815;-63
2023/11/02 10:52:30;;;;;;;0.40;0.20;;;11.80;99.90;;;;;;5128802;27;20403;-64
2023/11/02 10:55:19;;;;;;;0.70;0.20;;;11.80;99.90;;;;;;5141745;27;20602;-63
2023/11/02 10:57:49;;;;;;;0.40;0.20;;;11.80;99.90;;;;;;5151777;27;20501;-63
2023/11/02 11:00:18;;;;;;;0.68;0.20;;;11.80;99.90;;;;;;5150374;27;20422;-64
2023/11/02 11:02:49;;;;;;;0.40;0.20;;;11.80;99.90;;;;;;5149120;27;20436;-63
2023/11/02 11:05:18;;;;;;;1.30;0.20;;;11.90;99.90;;;;;;5150286;27;20731;-63
2023/11/02 11:07:46;;;;;;;0.35;0.20;;;11.80;99.90;;;;;;5150690;27;20440;-63
2023/11/02 11:10:14;;;;;;;0.40;0.10;;;11.80;99.90;;;;;;5150794;27;20818;-64
2023/11/02 11:12:42;;;;;;;0.40;0.10;;;11.70;99.90;;;;;;5151004;27;20421;-63
2023/11/02 11:15:13;;;;;;;0.40;0.20;;;11.70;99.90;;;;;;5150913;27;20425;-64
2023/11/02 11:17:43;;;;;;;0.40;0.20;;;11.70;99.90;;;;;;5148674;27;20409;-63
2023/11/02 11:20:12;;;;;;;0.68;0.20;;;11.70;99.90;;;;;;5145730;27;20428;-63
2023/11/02 11:22:42;;;;;;;0.40;0.20;;;11.80;99.90;;;;;;5148270;27;20519;-63
2023/11/02 11:25:10;;;;;;;0.30;0.10;;;11.80;99.90;;;;;;5130930;27;20422;-63
2023/11/02 11:27:38;;;;;;;0.30;0.20;;;11.80;99.90;;;;;;5126615;27;20763;-63
2023/11/02 11:30:27;;;;;;;0.90;0.20;;;11.80;99.90;;;;;;5126649;27;21010;-64
2023/11/02 11:32:57;;;;;;;0.40;0.20;;;11.80;99.90;;;;;;5126967;27;20414;-65
2023/11/02 11:35:25;;;;;;;0.40;0.20;;;11.70;99.90;;;;;;5129068;27;20418;-64
2023/11/02 11:37:57;;;;;;;0.40;0.20;;;11.70;99.90;;;;;;5129384;27;20513;-65
2023/11/02 11:40:35;;;;;;;0.70;0.10;;;11.60;99.90;;;;;;5133543;27;20419;-64
2023/11/02 11:43:12;;;;;;;0.50;0.20;;;11.60;99.90;;;;;;5133354;27;20471;-64
2023/11/02 11:45:49;;;;;;;0.30;0.10;;;11.70;99.90;;;;;;5130466;27;20698;-63
2023/11/02 11:48:41;;;;;;;0.60;0.10;;;11.70;99.90;;;;;;5127733;27;20523;-63
2023/11/02 11:51:39;;;;;;;0.43;0.20;;;11.70;99.90;;;;;;5129060;27;20419;-63
2023/11/02 11:54:10;;;;;;;0.45;0.15;;;11.60;99.90;;;;;;5129210;27;20414;-63
2023/11/02 11:56:38;;;;;;;0.40;0.10;;;11.60;99.90;;;;;;5129038;27;20438;-63
2023/11/02 11:59:05;;;;;;;0.30;0.10;;;11.60;99.90;;;;;;5128469;27;20414;-64
2023/11/02 12:01:32;;;;;;;0.40;0.10;;;11.60;99.90;;;;;;5126794;27;20517;-63
2023/11/02 12:04:02;;;;;;;0.38;0.10;;;11.70;99.90;;;;;;5125645;27;20738;-63
2023/11/02 12:06:39;;;;;;;0.70;0.13;;;11.70;99.90;;;;;;5125086;27;20530;-62
2023/11/02 12:09:09;;;;;;;0.30;0.10;;;11.70;99.90;;;;;;5125786;27;20502;-62
2023/11/02 12:11:37;;;;;;;0.30;0.10;;;11.70;99.90;;;;;;5130593;27;20471;-62
2023/11/02 12:14:17;;;;;;;0.40;0.20;;;11.60;99.90;;;;;;5133359;27;20460;-63
2023/11/02 12:16:44;;;;;;;0.77;0.20;;;11.50;99.90;;;;;;5135516;27;20445;-63
2023/11/02 12:19:13;;;;;;;0.45;0.20;;;11.50;99.90;;;;;;5135782;27;20410;-63
2023/11/02 12:21:41;;;;;;;0.40;0.10;;;11.50;99.90;;;;;;5133455;27;20450;-62
2023/11/02 12:24:11;;;;;;;0.50;0.20;;;11.40;99.90;;;;;;5136501;27;20475;-63
2023/11/02 12:26:40;;;;;;;0.30;0.10;;;11.40;99.90;;;;;;5135313;27;20425;-63
2023/11/02 12:29:09;;;;;;;0.30;0.10;;;11.40;99.90;;;;;;5131579;27;20414;-63
2023/11/02 12:31:38;;;;;;;0.40;0.20;;;11.30;99.90;;;;;;5133576;27;20438;-63
2023/11/02 12:34:08;;;;;;;0.30;0.20;;;11.30;99.90;;;;;;5136701;27;20433;-63
2023/11/02 12:36:37;;;;;;;0.50;0.20;;;11.20;99.90;;;;;;5135242;27;20426;-63
2023/11/02 12:39:11;;;;;;;0.40;0.20;;;11.20;99.90;;;;;;5134493;27;20710;-64
2023/11/02 12:41:38;;;;;;;0.30;0.10;;;11.20;99.90;;;;;;5132693;27;20411;-62
2023/11/02 12:44:07;;;;;;;0.88;0.20;;;11.20;99.90;;;;;;5132233;27;20714;-62
2023/11/02 12:46:35;;;;;;;0.35;0.10;;;11.20;99.90;;;;;;5134251;27;20418;-63
2023/11/02 12:49:17;;;;;;;0.40;0.10;;;11.20;99.90;;;;;;5134409;27;20418;-62
2023/11/02 12:52:01;;;;;;;0.50;0.20;;;11.20;99.90;;;;;;5135019;27;20478;-64
2023/11/02 12:54:31;;;;;;;0.40;0.20;;;11.20;99.90;;;;;;5134192;27;20414;-64
2023/11/02 12:57:01;;;;;;;0.35;0.10;;;11.10;99.90;;;;;;5133671;27;20521;-65
2023/11/02 12:59:28;;;;;;;0.30;0.10;;;11.20;99.90;;;;;;5130793;27;20561;-64
2023/11/02 13:02:01;;;;;;;0.40;0.20;;;11.10;99.90;;;;;;5132104;27;20691;-63
2023/11/02 13:04:48;;;;;;;0.30;0.10;;;11.10;99.90;;;;;;5130996;27;20414;-60
2023/11/02 13:07:23;;;;;;;0.30;0.10;;;11.10;99.90;;;;;;5132391;27;20427;-61
2023/11/02 13:10:04;;;;;;;0.30;0.20;;;11.10;99.90;;;;;;5131117;27;20766;-60
2023/11/02 13:12:34;;;;;;;0.35;0.10;;;11.10;99.90;;;;;;5130662;27;20834;-60
2023/11/02 13:15:05;;;;;;;0.90;0.10;;;11.10;99.90;;;;;;5131978;27;20434;-61
2023/11/02 13:17:32;;;;;;;0.30;0.10;;;11.10;99.90;;;;;;5128779;27;20423;-62